createdAt,value
2022-12-22T00:00:19.386Z,5.63
2022-12-22T00:03:05.478Z,7.18
2022-12-22T00:05:51.644Z,7.50
2022-12-22T00:08:37.686Z,7.68
2022-12-22T00:11:25.495Z,7.07
2022-12-22T00:14:11.497Z,5.57
2022-12-22T00:16:57.827Z,7.47
2022-12-22T00:19:44.094Z,8.32
2022-12-22T00:22:40.692Z,5.78
2022-12-22T00:25:27.863Z,5.25
2022-12-22T00:28:13.807Z,4.43
2022-12-22T00:31:00.071Z,5.85
2022-12-22T00:33:46.034Z,6.20
2022-12-22T00:36:31.902Z,4.93
2022-12-22T00:39:17.587Z,4.72
2022-12-22T00:42:03.468Z,5.38
2022-12-22T00:44:49.568Z,4.82
2022-12-22T00:47:42.685Z,4.93
2022-12-22T00:50:28.500Z,5.07
2022-12-22T00:53:14.450Z,5.72
2022-12-22T00:56:00.280Z,4.97
2022-12-22T00:58:46.792Z,5.45
2022-12-22T01:01:32.809Z,6.38
2022-12-22T01:04:19.033Z,5.78
2022-12-22T01:07:05.469Z,5.28
2022-12-22T01:09:51.767Z,5.90
2022-12-22T01:12:39.528Z,4.90
2022-12-22T01:15:36.656Z,5.40
2022-12-22T01:18:23.680Z,5.38
2022-12-22T01:21:09.536Z,6.70
2022-12-22T01:23:56.431Z,5.70
2022-12-22T01:26:42.239Z,7.25
2022-12-22T01:29:28.094Z,6.00
2022-12-22T01:32:14.496Z,6.78
2022-12-22T01:35:00.376Z,5.75
2022-12-22T01:37:46.056Z,5.38
2022-12-22T01:40:42.544Z,7.15
2022-12-22T01:43:48.535Z,6.00
2022-12-22T01:46:44.843Z,5.97
2022-12-22T01:49:38.763Z,6.88
2022-12-22T01:52:24.664Z,6.20
2022-12-22T01:55:10.468Z,7.32
2022-12-22T01:57:56.397Z,6.78
2022-12-22T02:00:42.083Z,5.95
2022-12-22T02:03:38.664Z,7.38
2022-12-22T02:06:30.705Z,6.50
2022-12-22T02:09:35.641Z,7.15
2022-12-22T02:12:27.546Z,7.05
2022-12-22T02:15:26.598Z,5.80
2022-12-22T02:18:16.793Z,6.15
2022-12-22T02:21:07.357Z,7.85
2022-12-22T02:24:12.396Z,6.32
2022-12-22T02:27:04.343Z,6.15
2022-12-22T02:29:52.818Z,6.00
2022-12-22T02:32:39.015Z,5.43
2022-12-22T02:35:32.130Z,6.35
2022-12-22T02:38:39.611Z,5.85
2022-12-22T02:41:59.150Z,5.90
2022-12-22T02:45:04.021Z,5.47
2022-12-22T02:47:52.995Z,7.40
2022-12-22T02:50:45.795Z,6.78
2022-12-22T02:53:31.758Z,5.65
2022-12-22T02:56:24.485Z,7.32
2022-12-22T02:59:11.297Z,5.45
2022-12-22T03:01:57.761Z,6.75
2022-12-22T03:04:43.739Z,5.88
2022-12-22T03:07:29.481Z,7.50
2022-12-22T03:10:15.306Z,7.65
2022-12-22T03:13:01.271Z,7.47
2022-12-22T03:15:47.279Z,8.02
2022-12-22T03:18:33.413Z,6.22
2022-12-22T03:21:19.476Z,6.63
2022-12-22T03:24:05.427Z,6.80
2022-12-22T03:26:33.601Z,6.43
2022-12-22T03:29:01.579Z,7.45
2022-12-22T03:31:28.970Z,7.00
2022-12-22T03:33:56.599Z,7.97
2022-12-22T03:36:23.847Z,8.00
2022-12-22T03:38:51.192Z,8.60
2022-12-22T03:41:36.900Z,8.38
2022-12-22T03:44:22.601Z,7.57
2022-12-22T03:46:49.859Z,8.05
2022-12-22T03:49:19.372Z,7.65
2022-12-22T03:51:47.855Z,7.03
2022-12-22T03:54:25.165Z,7.45
2022-12-22T03:56:52.660Z,8.35
2022-12-22T03:59:20.056Z,7.20
2022-12-22T04:01:54.406Z,7.05
2022-12-22T04:04:24.110Z,7.38
2022-12-22T04:06:51.534Z,6.88
2022-12-22T04:09:18.876Z,8.15
2022-12-22T04:12:04.824Z,7.40
2022-12-22T04:14:34.591Z,7.28
2022-12-22T04:17:05.672Z,7.40
2022-12-22T04:19:32.954Z,6.65
2022-12-22T04:22:00.435Z,6.32
2022-12-22T04:24:27.780Z,6.10
2022-12-22T04:26:55.484Z,6.72
2022-12-22T04:29:22.704Z,6.47
2022-12-22T04:31:50.270Z,6.55
2022-12-22T04:34:19.700Z,5.78
2022-12-22T04:36:47.014Z,7.07
2022-12-22T04:39:14.260Z,7.32
2022-12-22T04:41:41.776Z,6.57
2022-12-22T04:44:09.054Z,7.50
2022-12-22T04:46:36.263Z,6.40
2022-12-22T04:49:03.509Z,6.47
2022-12-22T04:51:31.420Z,5.70
2022-12-22T04:53:58.661Z,6.45
2022-12-22T04:56:25.902Z,6.47
2022-12-22T04:58:53.173Z,5.95
2022-12-22T05:01:20.580Z,5.88
2022-12-22T05:03:48.069Z,5.72
2022-12-22T05:06:15.555Z,5.97
2022-12-22T05:08:43.311Z,6.85
2022-12-22T05:11:10.711Z,5.90
2022-12-22T05:13:37.991Z,7.32
2022-12-22T05:16:06.246Z,6.88
2022-12-22T05:18:34.434Z,6.18
2022-12-22T05:21:07.234Z,6.57
2022-12-22T05:23:35.042Z,6.47
2022-12-22T05:26:02.513Z,5.80
2022-12-22T05:28:32.285Z,6.57
2022-12-22T05:31:08.859Z,6.38
2022-12-22T05:33:36.252Z,5.88
2022-12-22T05:36:03.709Z,5.85
2022-12-22T05:38:30.987Z,6.45
2022-12-22T05:41:03.842Z,6.43
2022-12-22T05:43:32.794Z,6.70
2022-12-22T05:46:07.715Z,8.40
2022-12-22T05:48:39.072Z,6.60
2022-12-22T05:51:10.404Z,5.63
2022-12-22T05:53:37.727Z,4.80
2022-12-22T05:56:05.738Z,5.85
2022-12-22T05:58:33.225Z,5.25
2022-12-22T06:01:00.807Z,6.20
2022-12-22T06:03:28.490Z,6.43
2022-12-22T06:05:55.984Z,5.47
2022-12-22T06:08:23.371Z,5.03
2022-12-22T06:10:50.979Z,5.15
2022-12-22T06:13:18.239Z,4.95
2022-12-22T06:15:45.515Z,5.43
2022-12-22T06:18:13.538Z,5.50
2022-12-22T06:20:40.755Z,4.95
2022-12-22T06:23:08.081Z,5.63
2022-12-22T06:25:35.345Z,6.70
2022-12-22T06:28:02.562Z,5.72
2022-12-22T06:30:33.886Z,6.03
2022-12-22T06:33:01.540Z,5.25
2022-12-22T06:35:29.033Z,5.70
2022-12-22T06:37:56.332Z,6.15
2022-12-22T06:40:23.807Z,5.53
2022-12-22T06:43:10.063Z,6.63
2022-12-22T06:45:39.276Z,5.40
2022-12-22T06:48:07.543Z,6.00
2022-12-22T06:50:36.015Z,5.93
2022-12-22T06:53:04.079Z,6.28
2022-12-22T06:55:31.438Z,4.90
2022-12-22T06:57:58.938Z,6.68
2022-12-22T07:00:26.293Z,7.15
2022-12-22T07:02:53.854Z,7.72
2022-12-22T07:05:21.600Z,8.00
2022-12-22T07:07:49.020Z,8.50
2022-12-22T07:10:16.367Z,8.50
2022-12-22T07:12:43.746Z,8.52
2022-12-22T07:15:11.272Z,10.15
2022-12-22T07:17:38.749Z,10.23
2022-12-22T07:20:07.697Z,9.00
2022-12-22T07:22:34.967Z,8.32
2022-12-22T07:25:02.212Z,7.95
2022-12-22T07:27:29.646Z,8.45
2022-12-22T07:29:56.873Z,10.82
2022-12-22T07:32:24.347Z,9.88
2022-12-22T07:34:51.615Z,8.95
2022-12-22T07:37:18.883Z,7.40
2022-12-22T07:39:46.183Z,10.00
2022-12-22T07:42:31.983Z,9.98
2022-12-22T07:45:00.632Z,8.13
2022-12-22T07:47:33.347Z,9.60
2022-12-22T07:50:21.467Z,9.40
2022-12-22T07:52:48.710Z,8.30
2022-12-22T07:55:16.107Z,9.48
2022-12-22T07:57:43.311Z,10.50
2022-12-22T08:00:11.254Z,9.05
2022-12-22T08:02:39.319Z,8.65
2022-12-22T08:05:07.924Z,7.60
2022-12-22T08:07:35.361Z,8.57
2022-12-22T08:10:02.654Z,8.30
2022-12-22T08:12:32.528Z,7.03
2022-12-22T08:15:00.079Z,6.25
2022-12-22T08:17:27.861Z,6.03
2022-12-22T08:19:55.577Z,7.32
2022-12-22T08:22:24.004Z,6.15
2022-12-22T08:24:52.491Z,5.93
2022-12-22T08:27:26.479Z,6.00
2022-12-22T08:29:58.487Z,5.60
2022-12-22T08:32:25.760Z,5.22
2022-12-22T08:34:53.025Z,6.47
2022-12-22T08:37:22.295Z,5.70
2022-12-22T08:39:52.285Z,6.43
2022-12-22T08:42:19.524Z,6.35
2022-12-22T08:44:52.137Z,6.28
2022-12-22T08:47:20.720Z,5.18
2022-12-22T08:49:48.654Z,5.90
2022-12-22T08:52:18.897Z,6.13
2022-12-22T08:54:46.721Z,6.03
2022-12-22T08:57:13.966Z,4.57
2022-12-22T08:59:41.458Z,4.75
2022-12-22T09:02:08.775Z,5.95
2022-12-22T09:04:37.863Z,5.35
2022-12-22T09:07:05.322Z,5.82
2022-12-22T09:09:33.138Z,5.40
2022-12-22T09:12:01.154Z,5.38
2022-12-22T09:14:28.885Z,5.53
2022-12-22T09:16:57.462Z,4.90
2022-12-22T09:19:24.675Z,4.68
2022-12-22T09:21:51.990Z,5.15
2022-12-22T09:24:19.369Z,6.13
2022-12-22T09:26:46.731Z,6.00
2022-12-22T09:29:15.761Z,5.65
2022-12-22T09:31:43.592Z,5.57
2022-12-22T09:34:17.178Z,5.20
2022-12-22T09:36:45.222Z,4.85
2022-12-22T09:39:12.738Z,4.78
2022-12-22T09:41:47.839Z,4.93
2022-12-22T09:44:22.765Z,5.28
2022-12-22T09:46:50.509Z,4.50
2022-12-22T09:49:18.553Z,4.32
2022-12-22T09:52:04.474Z,4.80
2022-12-22T09:54:31.751Z,4.93
2022-12-22T09:56:59.015Z,5.78
2022-12-22T09:59:27.556Z,4.93
2022-12-22T10:02:19.781Z,4.93
2022-12-22T10:04:57.259Z,4.97
2022-12-22T10:07:33.650Z,5.47
2022-12-22T10:10:28.615Z,5.40
2022-12-22T10:12:58.040Z,4.60
2022-12-22T10:15:25.607Z,4.88
2022-12-22T10:17:54.247Z,5.45
2022-12-22T10:20:21.431Z,5.80
2022-12-22T10:22:49.724Z,5.90
2022-12-22T10:26:26.782Z,4.88
2022-12-22T10:28:37.111Z,5.57
2022-12-22T10:31:17.991Z,4.87
2022-12-22T10:33:47.763Z,4.63
2022-12-22T10:36:36.401Z,4.90
2022-12-22T10:39:08.931Z,5.07
2022-12-22T10:41:43.052Z,5.03
2022-12-22T10:44:19.409Z,4.40
2022-12-22T10:46:48.514Z,4.88
2022-12-22T10:49:29.920Z,4.93
2022-12-22T10:54:44.943Z,4.65
2022-12-22T10:57:15.207Z,4.90
2022-12-22T10:59:59.865Z,5.10
2022-12-22T11:02:34.286Z,5.18
2022-12-22T11:05:04.222Z,5.03
2022-12-22T11:07:33.431Z,5.28
2022-12-22T11:10:00.937Z,5.45
2022-12-22T11:13:02.865Z,5.22
2022-12-22T11:16:02.291Z,5.65
2022-12-22T11:18:38.861Z,5.00
2022-12-22T11:21:23.750Z,5.18
2022-12-22T11:24:06.863Z,5.60
2022-12-22T11:26:55.145Z,4.50
2022-12-22T11:29:56.056Z,5.20
2022-12-22T11:32:33.270Z,4.90
2022-12-22T11:35:22.664Z,5.10
2022-12-22T11:38:27.273Z,5.72
2022-12-22T11:41:12.576Z,4.30
2022-12-22T11:44:10.961Z,5.32
2022-12-22T11:46:51.025Z,4.85
2022-12-22T11:49:41.387Z,4.65
2022-12-22T11:52:31.552Z,4.85
2022-12-22T11:55:20.546Z,5.97
2022-12-22T11:58:05.560Z,4.47
2022-12-22T12:01:11.886Z,4.75
2022-12-22T12:03:50.597Z,4.30
2022-12-22T12:06:20.611Z,4.60
2022-12-22T12:09:05.531Z,4.35
2022-12-22T12:11:51.251Z,3.95
2022-12-22T12:14:32.410Z,3.03
2022-12-22T12:17:23.223Z,3.78
2022-12-22T12:20:29.065Z,4.33
2022-12-22T12:23:14.363Z,3.85
2022-12-22T12:25:44.271Z,4.28
2022-12-22T12:28:23.356Z,4.60
2022-12-22T12:31:00.415Z,4.63
2022-12-22T12:33:51.419Z,5.47
2022-12-22T12:36:27.399Z,4.05
2022-12-22T12:39:12.910Z,4.20
2022-12-22T12:42:08.056Z,4.15
2022-12-22T12:44:35.953Z,4.32
2022-12-22T12:47:23.518Z,4.68
2022-12-22T12:50:00.531Z,4.82
2022-12-22T12:52:40.128Z,4.80
2022-12-22T12:55:32.714Z,4.65
2022-12-22T12:58:04.252Z,4.45
2022-12-22T13:00:34.775Z,4.88
2022-12-22T13:03:16.259Z,5.60
2022-12-22T13:06:01.544Z,4.40
2022-12-22T13:08:53.273Z,5.00
2022-12-22T13:12:11.362Z,4.57
2022-12-22T13:14:58.287Z,3.40
2022-12-22T13:17:34.727Z,4.55
2022-12-22T13:20:02.750Z,4.22
2022-12-22T13:22:30.689Z,4.57
2022-12-22T13:24:57.960Z,4.63
2022-12-22T13:27:25.218Z,5.15
2022-12-22T13:29:52.634Z,5.20
2022-12-22T13:32:30.434Z,4.63
2022-12-22T13:37:54.160Z,5.78
2022-12-22T13:40:23.631Z,4.90
2022-12-22T13:42:53.314Z,4.63
2022-12-22T13:45:31.493Z,4.63
2022-12-22T13:48:00.786Z,4.30
2022-12-22T13:50:31.145Z,4.70
2022-12-22T13:52:58.408Z,4.53
2022-12-22T13:55:27.011Z,4.80
2022-12-22T13:57:58.429Z,4.90
2022-12-22T14:00:26.915Z,4.15
2022-12-22T14:02:54.633Z,5.00
2022-12-22T14:05:22.563Z,5.15
2022-12-22T14:08:01.151Z,5.18
2022-12-22T14:10:34.527Z,4.68
2022-12-22T14:13:06.814Z,4.88
2022-12-22T14:15:34.195Z,5.00
2022-12-22T14:18:01.499Z,5.25
2022-12-22T14:20:36.773Z,5.38
2022-12-22T14:23:15.945Z,6.05
2022-12-22T14:25:46.270Z,5.13
2022-12-22T14:28:25.307Z,5.70
2022-12-22T14:30:54.474Z,5.78
2022-12-22T14:33:32.410Z,5.63
2022-12-22T14:36:15.786Z,4.72
2022-12-22T14:38:44.325Z,5.55
2022-12-22T14:41:33.255Z,5.82
2022-12-22T14:44:00.554Z,4.95
2022-12-22T14:46:32.246Z,5.57
2022-12-22T14:49:02.413Z,5.63
2022-12-22T14:51:29.717Z,8.57
2022-12-22T14:53:58.256Z,4.97
2022-12-22T14:56:25.765Z,5.63
2022-12-22T14:59:11.349Z,5.55
2022-12-22T15:01:38.905Z,5.57
2022-12-22T15:04:17.001Z,5.55
2022-12-22T15:06:47.865Z,5.18
2022-12-22T15:09:15.165Z,5.10
2022-12-22T15:11:46.149Z,4.85
2022-12-22T15:14:15.584Z,6.35
2022-12-22T15:16:42.986Z,5.45
2022-12-22T15:19:17.792Z,6.38
2022-12-22T15:21:45.388Z,5.13
2022-12-22T15:24:17.944Z,5.93
2022-12-22T15:26:45.421Z,6.88
2022-12-22T15:29:12.811Z,5.32
2022-12-22T15:31:40.573Z,5.32
2022-12-22T15:34:25.101Z,5.40
2022-12-22T15:36:52.588Z,4.65
2022-12-22T15:39:20.281Z,5.70
2022-12-22T15:41:48.095Z,5.80
2022-12-22T15:44:15.299Z,5.63
2022-12-22T15:46:44.062Z,4.70
2022-12-22T15:49:21.382Z,5.47
2022-12-22T15:51:50.042Z,5.07
2022-12-22T15:54:17.699Z,5.60
2022-12-22T15:56:45.039Z,5.07
2022-12-22T15:59:16.633Z,4.57
2022-12-22T16:01:44.282Z,4.78
2022-12-22T16:04:11.733Z,4.43
2022-12-22T16:06:39.070Z,5.32
2022-12-22T16:09:10.208Z,4.85
2022-12-22T16:11:38.635Z,5.13
2022-12-22T16:14:05.943Z,4.40
2022-12-22T16:16:33.933Z,5.13
2022-12-22T16:19:01.253Z,4.28
2022-12-22T16:21:30.775Z,5.35
2022-12-22T16:23:58.714Z,4.82
2022-12-22T16:26:26.023Z,5.32
2022-12-22T16:28:53.981Z,5.15
2022-12-22T16:31:22.558Z,4.80
2022-12-22T16:33:49.971Z,4.75
2022-12-22T16:36:17.268Z,4.57
2022-12-22T16:38:45.985Z,5.45
2022-12-22T16:41:18.510Z,5.25
2022-12-22T16:43:48.709Z,6.25
2022-12-22T16:46:17.608Z,5.95
2022-12-22T16:48:53.070Z,6.28
2022-12-22T16:51:33.880Z,7.55
2022-12-22T16:54:01.696Z,5.45
2022-12-22T16:56:30.373Z,5.30
2022-12-22T16:58:57.820Z,5.65
2022-12-22T17:01:30.346Z,5.28
2022-12-22T17:03:58.931Z,6.10
2022-12-22T17:06:26.300Z,5.70
2022-12-22T17:08:53.726Z,5.13
2022-12-22T17:11:22.779Z,5.45
2022-12-22T17:13:50.745Z,6.30
2022-12-22T17:16:21.859Z,4.65
2022-12-22T17:18:49.401Z,5.53
2022-12-22T17:21:17.693Z,5.60
2022-12-22T17:23:53.612Z,5.68
2022-12-22T17:26:22.522Z,5.15
2022-12-22T17:28:49.832Z,6.30
2022-12-22T17:31:19.000Z,5.93
2022-12-22T17:33:46.762Z,4.50
2022-12-22T17:36:31.305Z,5.50
2022-12-22T17:38:58.581Z,4.72
2022-12-22T17:41:26.050Z,4.82
2022-12-22T17:43:53.322Z,4.25
2022-12-22T17:46:21.310Z,4.47
2022-12-22T17:48:48.938Z,3.55
2022-12-22T17:51:20.558Z,4.15
2022-12-22T17:53:48.258Z,3.95
2022-12-22T17:56:20.203Z,3.90
2022-12-22T17:58:47.571Z,3.88
2022-12-22T18:01:25.261Z,3.67
2022-12-22T18:03:53.473Z,3.55
2022-12-22T18:06:22.291Z,6.35
2022-12-22T18:08:49.830Z,4.63
2022-12-22T18:11:18.112Z,3.83
2022-12-22T18:13:47.056Z,4.03
2022-12-22T18:16:18.374Z,4.07
2022-12-22T18:18:45.646Z,4.25
2022-12-22T18:21:20.714Z,3.75
2022-12-22T18:23:50.566Z,3.75
2022-12-22T18:26:36.358Z,3.60
2022-12-22T18:29:04.221Z,5.00
2022-12-22T18:31:31.630Z,4.00
2022-12-22T18:33:59.036Z,4.20
2022-12-22T18:36:31.951Z,3.90
2022-12-22T18:39:00.699Z,4.35
2022-12-22T18:41:29.087Z,3.83
2022-12-22T18:43:56.440Z,3.88
2022-12-22T18:46:24.252Z,4.18
2022-12-22T18:48:51.590Z,4.57
2022-12-22T18:51:20.887Z,4.97
2022-12-22T18:53:48.822Z,4.65
2022-12-22T18:56:17.569Z,5.22
2022-12-22T18:58:46.221Z,4.35
2022-12-22T19:01:24.218Z,4.70
2022-12-22T19:03:53.724Z,4.45
2022-12-22T19:06:21.822Z,4.47
2022-12-22T19:08:49.652Z,4.15
2022-12-22T19:11:18.520Z,3.83
2022-12-22T19:13:47.272Z,3.83
2022-12-22T19:16:16.432Z,4.53
2022-12-22T19:18:43.773Z,4.28
2022-12-22T19:21:15.399Z,4.15
2022-12-22T19:23:42.691Z,5.30
2022-12-22T19:26:32.873Z,5.00
2022-12-22T19:29:03.494Z,4.20
2022-12-22T19:31:34.548Z,5.72
2022-12-22T19:34:04.488Z,5.13
2022-12-22T19:36:33.295Z,4.68
2022-12-22T19:39:05.639Z,5.63
2022-12-22T19:41:51.579Z,5.05
2022-12-22T19:44:26.758Z,5.15
2022-12-22T19:46:54.471Z,5.13
2022-12-22T19:49:23.784Z,4.82
2022-12-22T19:51:51.169Z,4.70
2022-12-22T19:54:19.830Z,4.28
2022-12-22T19:56:52.462Z,4.20
2022-12-22T19:59:37.335Z,5.45
2022-12-22T20:02:21.438Z,4.18
2022-12-22T20:04:49.437Z,4.70
2022-12-22T20:07:17.460Z,5.13
2022-12-22T20:09:44.709Z,5.53
2022-12-22T20:12:32.096Z,5.45
2022-12-22T20:14:59.539Z,5.70
2022-12-22T20:17:26.789Z,5.10
2022-12-22T20:19:54.055Z,5.28
2022-12-22T20:22:21.770Z,5.80
2022-12-22T20:24:49.295Z,5.15
2022-12-22T20:27:18.797Z,5.45
2022-12-22T20:29:46.044Z,5.57
2022-12-22T20:32:14.117Z,5.70
2022-12-22T20:34:41.670Z,5.78
2022-12-22T20:37:16.644Z,6.30
2022-12-22T20:39:44.334Z,6.60
2022-12-22T20:42:22.744Z,6.55
2022-12-22T20:45:03.469Z,5.93
2022-12-22T20:47:33.300Z,6.97
2022-12-22T20:50:00.585Z,6.55
2022-12-22T20:52:28.080Z,7.57
2022-12-22T20:54:56.513Z,6.07
2022-12-22T20:57:24.331Z,5.75
2022-12-22T20:59:56.098Z,5.97
2022-12-22T21:02:27.189Z,7.07
2022-12-22T21:04:55.027Z,6.88
2022-12-22T21:07:22.483Z,7.78
2022-12-22T21:09:49.701Z,5.95
2022-12-22T21:12:19.881Z,6.85
2022-12-22T21:14:47.256Z,7.13
2022-12-22T21:17:18.066Z,7.07
2022-12-22T21:19:45.508Z,6.68
2022-12-22T21:22:12.929Z,7.22
2022-12-22T21:24:41.705Z,6.80
2022-12-22T21:27:19.096Z,6.03
2022-12-22T21:29:47.118Z,7.35
2022-12-22T21:32:15.032Z,6.75
2022-12-22T21:34:43.095Z,6.50
2022-12-22T21:37:16.195Z,7.57
2022-12-22T21:39:44.885Z,7.13
2022-12-22T21:42:16.225Z,6.80
2022-12-22T21:47:17.029Z,7.65
2022-12-22T21:49:44.285Z,8.15
2022-12-22T21:52:11.502Z,7.60
2022-12-22T21:54:38.769Z,7.20
2022-12-22T21:57:06.036Z,7.78
2022-12-22T21:59:33.360Z,7.50
2022-12-22T22:02:00.828Z,7.07
2022-12-22T22:04:28.169Z,6.93
2022-12-22T22:06:55.434Z,6.72
2022-12-22T22:09:22.743Z,7.47
2022-12-22T22:12:08.859Z,7.38
2022-12-22T22:14:36.249Z,6.15
2022-12-22T22:17:03.486Z,7.40
2022-12-22T22:19:30.729Z,7.10
2022-12-22T22:21:58.262Z,6.20
2022-12-22T22:24:25.501Z,7.03
2022-12-22T22:26:52.877Z,6.60
2022-12-22T22:29:20.381Z,6.40
2022-12-22T22:31:48.053Z,5.75
2022-12-22T22:34:16.161Z,5.68
2022-12-22T22:36:43.430Z,5.57
2022-12-22T22:39:10.661Z,6.45
2022-12-22T22:41:42.959Z,6.97
2022-12-22T22:44:11.635Z,6.70
2022-12-22T22:46:39.183Z,5.78
2022-12-22T22:49:07.340Z,5.28
2022-12-22T22:51:34.582Z,5.90
2022-12-22T22:54:02.104Z,6.85
2022-12-22T22:56:29.644Z,6.40
2022-12-22T22:58:59.064Z,5.80
2022-12-22T23:01:26.395Z,6.20
2022-12-22T23:03:53.810Z,6.85
2022-12-22T23:06:21.248Z,7.82
2022-12-22T23:08:49.091Z,8.05
2022-12-22T23:11:18.032Z,7.57
2022-12-22T23:13:46.047Z,7.60
2022-12-22T23:16:16.177Z,6.85
2022-12-22T23:18:43.368Z,7.10
2022-12-22T23:21:11.053Z,7.22
2022-12-22T23:23:38.439Z,7.10
2022-12-22T23:26:06.207Z,7.22
2022-12-22T23:28:34.083Z,5.57
2022-12-22T23:31:01.438Z,7.05
2022-12-22T23:33:30.918Z,6.78
2022-12-22T23:35:58.169Z,6.75
2022-12-22T23:38:25.431Z,5.82
2022-12-22T23:40:54.412Z,4.38
2022-12-22T23:43:22.270Z,5.35
2022-12-22T23:45:49.567Z,5.65
2022-12-22T23:48:17.210Z,5.03
2022-12-22T23:50:47.844Z,4.60
2022-12-22T23:53:15.672Z,4.70
2022-12-22T23:55:44.709Z,4.60
2022-12-22T23:58:12.844Z,5.43
